Terminal Aerodrome Forecast
Issued by NWS Cleveland, OH

Home | Current Version | Previous Version | Graphics & Text | Print | Product List | Glossary On
Versions: 1 2 3 4 5 6 7 8 9 10 11 12 13 14 15 16 17 18 19
000
FTUS41 KCLE 130548
TAFYNG
TAF
KYNG 130548Z 1306/1406 28008KT P6SM -SHSN SCT015 OVC035
      TEMPO 1306/1308 2SM -SHSN OVC015
     FM131200 27010KT P6SM VCSH SCT015 OVC025
     FM131900 26010KT 3SM -SN OVC015
      TEMPO 1402/1406 1/2SM SN OVC006=

USA.gov is the U.S. government's official web portal to all federal, state and local government web resources and services.